PWSweather.com
Personal Weather Stations
Station Observations
THENIOUX
Tomatologue, TheniouxFR 18100

TomatologueTheniouxFR 18100

Lat: 47.2574218, Lon: 1.928950900000018

Elevation: 406

Station Type: davis vue

http://www.meteo.gedfr.co/index.php

Latest ConditionsUpdated 2:28:43 AM GMT+01:01 Friday, Aug 17, 2018
Currently Today's Max Today's Min Today's Average
Temperature 68.5°F20.3°C 72.0°F22.2°C 68.5°F20.3°C 70.0°F21.1°C
Dew Point 59.1°F15.1°C 60.4°F15.8°C 58.9°F14.9°C 59.5°F15.3°C
Winds 1.0 mph N1.6 kmh N 3.0 mph -4.8 kmh - - 1.6 mph 2.6 kmh
Wind Gusts -- -- - -
Humidity 72% 72% 67% 69%
Pressure 30.08 in1018.6 mb 30.08 in1018.6 mb 30.05 in1017.6 mb -
Hour Temp Dew Point Humidity Winds Wind Gusts Pressure Precip Precip Rate Daily Precip Total
02:28 AM 68.5°F20.3°C 59.1°F15.1°C 72% 1.0 mph N1.6 kmh N -- 30.08 in1018.6 mb 0.00 in0.0 mm 0.00 in0.0 mm 0.00 in0.0 mm
02:23 AM 68.5°F20.3°C 59.1°F15.1°C 72% 1.0 mph W1.6 kmh W -- 30.07 in1018.3 mb 0.00 in0.0 mm 0.00 in0.0 mm 0.00 in0.0 mm
02:18 AM 68.5°F20.3°C 59.1°F15.1°C 72% 1.0 mph W1.6 kmh W -- 30.07 in1018.3 mb 0.00 in0.0 mm 0.00 in0.0 mm 0.00 in0.0 mm
02:13 AM 68.7°F20.4°C 59.3°F15.2°C 72% 2.0 mph W3.2 kmh W -- 30.06 in1017.9 mb 0.00 in0.0 mm 0.00 in0.0 mm 0.00 in0.0 mm
02:08 AM 68.7°F20.4°C 59.3°F15.2°C 72% 2.0 mph W3.2 kmh W -- 30.06 in1017.9 mb 0.00 in0.0 mm 0.00 in0.0 mm 0.00 in0.0 mm
02:03 AM 68.7°F20.4°C 58.9°F14.9°C 71% 1.0 mph W1.6 kmh W -- 30.06 in1017.9 mb 0.00 in0.0 mm 0.00 in0.0 mm 0.00 in0.0 mm
01:58 AM 68.7°F20.4°C 58.9°F14.9°C 71% 1.0 mph W1.6 kmh W -- 30.06 in1017.9 mb 0.00 in0.0 mm 0.00 in0.0 mm 0.00 in0.0 mm
01:53 AM 69.1°F20.6°C 59.3°F15.2°C 71% 2.0 mph W3.2 kmh W -- 30.06 in1017.9 mb 0.00 in0.0 mm 0.00 in0.0 mm 0.00 in0.0 mm
01:48 AM 69.1°F20.6°C 59.3°F15.2°C 71% 2.0 mph W3.2 kmh W -- 30.06 in1017.9 mb 0.00 in0.0 mm 0.00 in0.0 mm 0.00 in0.0 mm
01:43 AM 69.1°F20.6°C 58.9°F14.9°C 70% 1.0 mph W1.6 kmh W -- 30.06 in1017.9 mb 0.00 in0.0 mm 0.00 in0.0 mm 0.00 in0.0 mm
01:38 AM 69.1°F20.6°C 58.9°F14.9°C 70% 1.0 mph W1.6 kmh W -- 30.06 in1017.9 mb 0.00 in0.0 mm 0.00 in0.0 mm 0.00 in0.0 mm
01:33 AM 69.4°F20.8°C 59.2°F15.1°C 70% 1.0 mph SW1.6 kmh SW -- 30.06 in1017.9 mb 0.00 in0.0 mm 0.00 in0.0 mm 0.00 in0.0 mm
01:28 AM 69.4°F20.8°C 59.2°F15.1°C 70% 1.0 mph SW1.6 kmh SW -- 30.06 in1017.9 mb 0.00 in0.0 mm 0.00 in0.0 mm 0.00 in0.0 mm
01:23 AM 69.8°F21.0°C 59.2°F15.1°C 69% 1.0 mph W1.6 kmh W -- 30.06 in1017.9 mb 0.00 in0.0 mm 0.00 in0.0 mm 0.00 in0.0 mm
01:18 AM 69.8°F21.0°C 59.2°F15.1°C 69% 1.0 mph W1.6 kmh W -- 30.06 in1017.9 mb 0.00 in0.0 mm 0.00 in0.0 mm 0.00 in0.0 mm
01:13 AM 69.8°F21.0°C 59.2°F15.1°C 69% 1.0 mph W1.6 kmh W -- 30.06 in1017.9 mb 0.00 in0.0 mm 0.00 in0.0 mm 0.00 in0.0 mm
01:08 AM 70.2°F21.2°C 59.5°F15.3°C 69% 1.0 mph W1.6 kmh W -- 30.06 in1017.9 mb 0.00 in0.0 mm 0.00 in0.0 mm 0.00 in0.0 mm
01:03 AM 70.2°F21.2°C 59.5°F15.3°C 69% 1.0 mph W1.6 kmh W -- 30.06 in1017.9 mb 0.00 in0.0 mm 0.00 in0.0 mm 0.00 in0.0 mm
12:58 AM 70.3°F21.3°C 59.7°F15.4°C 69% 3.0 mph W4.8 kmh W -- 30.07 in1018.3 mb 0.00 in0.0 mm 0.00 in0.0 mm 0.00 in0.0 mm
12:53 AM 70.3°F21.3°C 59.7°F15.4°C 69% 3.0 mph W4.8 kmh W -- 30.07 in1018.3 mb 0.00 in0.0 mm 0.00 in0.0 mm 0.00 in0.0 mm
12:48 AM 70.7°F21.5°C 59.6°F15.3°C 68% 2.0 mph SW3.2 kmh SW -- 30.06 in1017.9 mb 0.00 in0.0 mm 0.00 in0.0 mm 0.00 in0.0 mm
12:43 AM 70.7°F21.5°C 59.6°F15.3°C 68% 2.0 mph SW3.2 kmh SW -- 30.06 in1017.9 mb 0.00 in0.0 mm 0.00 in0.0 mm 0.00 in0.0 mm
12:38 AM 71.1°F21.7°C 60.0°F15.6°C 68% 1.0 mph SW1.6 kmh SW -- 30.06 in1017.9 mb 0.00 in0.0 mm 0.00 in0.0 mm 0.00 in0.0 mm
12:33 AM 71.1°F21.7°C 60.0°F15.6°C 68% 1.0 mph SW1.6 kmh SW -- 30.06 in1017.9 mb 0.00 in0.0 mm 0.00 in0.0 mm 0.00 in0.0 mm
12:28 AM 71.4°F21.9°C 60.3°F15.7°C 68% 2.0 mph W3.2 kmh W -- 30.06 in1017.9 mb 0.00 in0.0 mm 0.00 in0.0 mm 0.00 in0.0 mm
12:23 AM 71.4°F21.9°C 60.3°F15.7°C 68% 2.0 mph W3.2 kmh W -- 30.06 in1017.9 mb 0.00 in0.0 mm 0.00 in0.0 mm 0.00 in0.0 mm
12:18 AM 71.8°F22.1°C 60.2°F15.7°C 67% 2.0 mph S3.2 kmh S -- 30.06 in1017.9 mb 0.00 in0.0 mm 0.00 in0.0 mm 0.00 in0.0 mm
12:13 AM 71.8°F22.1°C 60.2°F15.7°C 67% 2.0 mph S3.2 kmh S -- 30.06 in1017.9 mb 0.00 in0.0 mm 0.00 in0.0 mm 0.00 in0.0 mm
12:08 AM 72.0°F22.2°C 60.4°F15.8°C 67% 3.0 mph W4.8 kmh W -- 30.05 in1017.6 mb 0.00 in0.0 mm 0.00 in0.0 mm 0.00 in0.0 mm
12:03 AM 72.0°F22.2°C 60.4°F15.8°C 67% 3.0 mph W4.8 kmh W -- 30.05 in1017.6 mb 0.00 in0.0 mm 0.00 in0.0 mm 0.00 in0.0 mm